Time;durP1;ratioP1;P1;durP2;ratioP2;P2;SDS_P1;SDS_P2;PMS_P1;PMS_P2;Temp;Humidity;BMP_temperature;BMP_pressure;BME280_temperature;BME280_humidity;BME280_pressure;Samples;Min_cycle;Max_cycle;Signal;HPM_P1;HPM_P2
2022/05/20 00:01:59;;;;;;;11.20;8.10;;;16.90;99.90;;;;;;5112048;28;20177;-58
2022/05/20 00:04:25;;;;;;;13.20;8.63;;;16.90;99.90;;;;;;5111331;27;20200;-57
2022/05/20 00:06:51;;;;;;;9.67;7.00;;;16.90;99.90;;;;;;5111852;27;20206;-59
2022/05/20 00:09:17;;;;;;;14.10;7.63;;;16.80;99.90;;;;;;5110519;28;20200;-59
2022/05/20 00:11:42;;;;;;;10.47;7.60;;;16.80;99.90;;;;;;5106906;28;20938;-59
2022/05/20 00:14:08;;;;;;;10.30;7.40;;;16.80;99.90;;;;;;5092724;28;20193;-58
2022/05/20 00:16:37;;;;;;;11.07;7.23;;;16.80;99.90;;;;;;5108992;27;20188;-59
2022/05/20 00:19:06;;;;;;;12.33;7.80;;;16.70;99.90;;;;;;5110413;28;20277;-58
2022/05/20 00:21:33;;;;;;;8.50;7.07;;;16.60;99.90;;;;;;5110015;27;20457;-58
2022/05/20 00:23:59;;;;;;;15.67;7.70;;;16.60;99.90;;;;;;5107318;28;20873;-57
2022/05/20 00:26:25;;;;;;;11.10;7.83;;;16.50;99.90;;;;;;5106223;28;20992;-58
2022/05/20 00:28:53;;;;;;;11.57;8.00;;;16.50;99.90;;;;;;5110940;28;20469;-59
2022/05/20 00:31:20;;;;;;;12.23;7.63;;;16.40;99.90;;;;;;5110146;27;20496;-58
2022/05/20 00:33:45;;;;;;;12.47;7.80;;;16.40;99.90;;;;;;5110456;27;20455;-58
2022/05/20 00:36:11;;;;;;;10.87;7.30;;;16.30;99.90;;;;;;5108268;27;20480;-57
2022/05/20 00:38:37;;;;;;;9.47;7.47;;;16.30;99.90;;;;;;5108514;28;20230;-58
2022/05/20 00:41:04;;;;;;;10.47;7.27;;;16.30;99.90;;;;;;5107556;27;20219;-58
2022/05/20 00:43:37;;;;;;;10.37;7.47;;;16.30;99.90;;;;;;5091360;28;20305;-58
2022/05/20 00:46:22;;;;;;;10.60;7.00;;;16.30;99.90;;;;;;5109495;28;20423;-58
2022/05/20 00:48:54;;;;;;;11.90;7.20;;;16.30;99.90;;;;;;5109709;28;20485;-57
2022/05/20 00:51:41;;;;;;;11.50;7.30;;;16.30;99.90;;;;;;5091404;28;20418;-57
2022/05/20 00:54:37;;;;;;;10.43;7.20;;;16.30;99.90;;;;;;5107532;28;20459;-57
2022/05/20 00:57:08;;;;;;;9.20;7.50;;;16.20;99.90;;;;;;5093060;27;20431;-58
2022/05/20 00:59:38;;;;;;;10.50;7.03;;;16.20;99.90;;;;;;5109445;28;20433;-58
2022/05/20 01:02:14;;;;;;;11.17;7.73;;;16.20;99.90;;;;;;5108156;27;20430;-58
2022/05/20 01:04:40;;;;;;;12.73;7.50;;;16.20;99.90;;;;;;5108320;28;20513;-57
2022/05/20 01:07:07;;;;;;;8.90;7.37;;;16.20;99.90;;;;;;5104223;27;20434;-57
2022/05/20 01:09:36;;;;;;;8.70;7.63;;;16.20;99.90;;;;;;5109956;28;20459;-57
2022/05/20 01:12:02;;;;;;;15.80;7.40;;;16.20;99.90;;;;;;5106641;27;20454;-57
2022/05/20 01:14:28;;;;;;;9.03;6.90;;;16.20;99.90;;;;;;5099564;28;20502;-57
2022/05/20 01:16:54;;;;;;;7.87;6.73;;;16.20;99.90;;;;;;5109458;28;20563;-58
2022/05/20 01:19:47;;;;;;;8.43;7.53;;;16.20;99.90;;;;;;5109440;28;20177;-57
2022/05/20 01:22:23;;;;;;;10.40;7.80;;;16.10;99.90;;;;;;5097366;28;20208;-58
2022/05/20 01:24:49;;;;;;;9.77;7.63;;;16.10;99.90;;;;;;5105305;28;20426;-58
2022/05/20 01:27:15;;;;;;;11.93;7.30;;;16.10;99.90;;;;;;5106187;27;20431;-57
2022/05/20 01:29:41;;;;;;;11.03;7.70;;;16.00;99.90;;;;;;5090295;28;20718;-58
2022/05/20 01:32:07;;;;;;;9.67;7.87;;;16.00;99.90;;;;;;5108836;27;20184;-57
2022/05/20 01:34:33;;;;;;;11.97;7.10;;;16.00;99.90;;;;;;5089299;28;20431;-57
2022/05/20 01:36:59;;;;;;;9.63;7.47;;;15.90;99.90;;;;;;5106597;28;20427;-57
2022/05/20 01:39:24;;;;;;;9.83;7.03;;;15.90;99.90;;;;;;5087857;28;20174;-57
2022/05/20 01:42:11;;;;;;;13.17;7.47;;;15.90;99.90;;;;;;5107636;28;20172;-57
2022/05/20 01:44:59;;;;;;;10.57;7.53;;;15.80;99.90;;;;;;5107459;28;20188;-58
2022/05/20 01:47:43;;;;;;;11.33;7.57;;;15.80;99.90;;;;;;5107616;28;20429;-58
2022/05/20 01:50:24;;;;;;;9.60;7.03;;;15.70;99.90;;;;;;5104654;28;20481;-58
2022/05/20 01:53:08;;;;;;;13.87;7.20;;;15.70;99.90;;;;;;5108532;28;20506;-58
2022/05/20 01:55:41;;;;;;;13.23;7.00;;;15.70;99.90;;;;;;5103305;28;20939;-58
2022/05/20 01:58:39;;;;;;;8.20;7.07;;;15.60;99.90;;;;;;5108535;28;21097;-57
2022/05/20 02:01:10;;;;;;;12.60;7.00;;;15.60;99.90;;;;;;5105916;27;20829;-58
2022/05/20 02:03:43;;;;;;;13.13;8.30;;;15.60;99.90;;;;;;5107213;28;20815;-58
2022/05/20 02:06:21;;;;;;;11.40;7.70;;;15.50;99.90;;;;;;5105183;28;20430;-58
2022/05/20 02:09:00;;;;;;;16.23;7.13;;;15.50;99.90;;;;;;5108113;28;20469;-57
2022/05/20 02:11:39;;;;;;;8.83;7.13;;;15.50;99.90;;;;;;5104943;27;20505;-58
2022/05/20 02:14:19;;;;;;;9.77;7.40;;;15.50;99.90;;;;;;5105895;28;20458;-58
2022/05/20 02:16:54;;;;;;;16.80;7.93;;;15.40;99.90;;;;;;5107791;28;20524;-58
2022/05/20 02:19:29;;;;;;;9.57;6.90;;;15.40;99.90;;;;;;5085078;28;20441;-59
2022/05/20 02:21:59;;;;;;;9.03;7.40;;;15.40;99.90;;;;;;5103241;28;20434;-55
2022/05/20 02:24:29;;;;;;;11.17;7.43;;;15.40;99.90;;;;;;5104006;28;20427;-57
2022/05/20 02:27:02;;;;;;;11.00;7.80;;;15.40;99.90;;;;;;5102251;28;20438;-59
2022/05/20 02:29:42;;;;;;;10.73;6.93;;;15.40;99.90;;;;;;5084994;28;20943;-58
2022/05/20 02:32:29;;;;;;;10.60;7.63;;;15.30;99.90;;;;;;5105247;28;20901;-58
2022/05/20 02:34:55;;;;;;;11.33;7.40;;;15.40;99.90;;;;;;5103782;28;20435;-63
2022/05/20 02:37:31;;;;;;;9.30;7.57;;;15.30;99.90;;;;;;5104231;28;20418;-58
2022/05/20 02:39:58;;;;;;;10.83;7.30;;;15.30;99.90;;;;;;5103694;28;20173;-57
2022/05/20 02:42:23;;;;;;;9.70;7.70;;;15.30;99.90;;;;;;5103510;28;20458;-59
2022/05/20 02:44:49;;;;;;;10.53;7.23;;;15.30;99.90;;;;;;5103133;28;20457;-59
2022/05/20 02:47:16;;;;;;;10.00;7.13;;;15.20;99.90;;;;;;5102762;28;20692;-59
2022/05/20 02:49:42;;;;;;;10.57;7.73;;;15.20;99.90;;;;;;5104294;28;20455;-58
2022/05/20 02:52:08;;;;;;;11.83;8.37;;;15.20;99.90;;;;;;5100249;28;20434;-61
2022/05/20 02:54:35;;;;;;;9.10;6.90;;;15.10;99.90;;;;;;5104006;28;20544;-58
2022/05/20 02:57:01;;;;;;;7.93;6.60;;;15.10;99.90;;;;;;5103733;28;20430;-58
2022/05/20 03:04:55;;;;;;;12.20;7.03;;;15.10;99.90;;;;;;5101903;28;20433;-58
2022/05/20 03:07:20;;;;;;;7.20;5.93;;;15.00;99.90;;;;;;5106107;28;20826;-58
2022/05/20 03:09:46;;;;;;;9.73;6.87;;;15.00;99.90;;;;;;5106861;28;20250;-58
2022/05/20 03:12:13;;;;;;;9.23;6.80;;;15.00;99.90;;;;;;5102918;28;20180;-58
2022/05/20 03:14:39;;;;;;;9.67;6.40;;;14.90;99.90;;;;;;5102777;28;20189;-59
2022/05/20 03:17:06;;;;;;;15.63;7.10;;;14.90;99.90;;;;;;5104418;28;20419;-59
2022/05/20 03:19:32;;;;;;;10.53;7.00;;;14.90;99.90;;;;;;5104229;28;20517;-58
2022/05/20 03:22:03;;;;;;;8.70;6.47;;;14.90;99.90;;;;;;5102218;28;20913;-59
2022/05/20 03:24:30;;;;;;;10.10;6.53;;;14.80;99.90;;;;;;5104776;28;21044;-58
2022/05/20 03:26:56;;;;;;;15.90;7.47;;;14.80;99.90;;;;;;5101174;28;20957;-58
2022/05/20 03:29:22;;;;;;;8.53;6.63;;;14.80;99.90;;;;;;5103376;28;20459;-59
2022/05/20 03:31:48;;;;;;;9.70;6.80;;;14.80;99.90;;;;;;5107933;28;20484;-58
2022/05/20 03:34:14;;;;;;;8.77;6.73;;;14.80;99.90;;;;;;5105857;28;20649;-59
2022/05/20 03:36:43;;;;;;;13.13;7.67;;;14.80;99.90;;;;;;5104575;28;20882;-58
2022/05/20 03:39:11;;;;;;;12.10;7.00;;;14.80;99.90;;;;;;5104654;28;20427;-59
2022/05/20 03:41:38;;;;;;;8.47;7.00;;;14.80;99.90;;;;;;5087611;28;20427;-59
2022/05/20 03:44:05;;;;;;;10.00;7.57;;;14.80;99.90;;;;;;5102318;28;20474;-59
2022/05/20 03:46:31;;;;;;;11.30;6.60;;;14.70;99.90;;;;;;5104953;28;20434;-57
2022/05/20 03:48:59;;;;;;;7.77;6.77;;;14.70;99.90;;;;;;5102281;28;20458;-58
2022/05/20 03:51:25;;;;;;;8.80;6.97;;;14.70;99.90;;;;;;5106452;28;20439;-60
2022/05/20 03:53:50;;;;;;;9.50;7.30;;;14.70;99.90;;;;;;5097793;28;20549;-57
2022/05/20 03:56:16;;;;;;;11.17;7.10;;;14.70;99.90;;;;;;5106139;28;20205;-56
2022/05/20 03:58:42;;;;;;;9.37;7.10;;;14.60;99.90;;;;;;5106230;28;20250;-56
2022/05/20 04:03:55;;;;;;;7.57;6.67;;;14.60;99.90;;;;;;5097396;27;20236;-57
2022/05/20 04:06:20;;;;;;;11.90;7.03;;;14.60;99.90;;;;;;5098403;27;20462;-59
2022/05/20 04:08:46;;;;;;;7.70;6.40;;;14.60;99.90;;;;;;5107825;28;20250;-58
2022/05/20 04:11:13;;;;;;;9.17;6.90;;;14.50;99.90;;;;;;5102231;27;20724;-57
2022/05/20 04:13:40;;;;;;;9.43;6.90;;;14.50;99.90;;;;;;5100955;28;20508;-59
2022/05/20 04:16:08;;;;;;;9.10;7.00;;;14.50;99.90;;;;;;5099293;27;20435;-59
2022/05/20 04:18:33;;;;;;;7.27;6.57;;;14.60;99.90;;;;;;5102579;27;20436;-58
2022/05/20 04:20:59;;;;;;;7.33;6.57;;;14.60;99.90;;;;;;5103110;27;20503;-60
2022/05/20 04:23:25;;;;;;;11.73;6.77;;;14.50;99.90;;;;;;5102043;28;20205;-59
2022/05/20 04:25:50;;;;;;;10.57;6.87;;;14.60;99.90;;;;;;5082859;28;20684;-58
2022/05/20 04:28:16;;;;;;;8.17;7.37;;;14.60;99.90;;;;;;5097377;27;20205;-58
2022/05/20 04:30:42;;;;;;;10.27;7.00;;;14.70;99.90;;;;;;5103561;28;20177;-59
2022/05/20 04:33:08;;;;;;;11.30;6.40;;;14.70;99.90;;;;;;5103435;28;20650;-61
2022/05/20 04:35:34;;;;;;;7.70;6.90;;;14.70;99.90;;;;;;5100796;28;21059;-59
2022/05/20 04:38:00;;;;;;;7.50;6.70;;;14.70;99.90;;;;;;5103274;28;20435;-59
2022/05/20 04:40:26;;;;;;;12.23;6.30;;;14.70;99.90;;;;;;5101770;28;20457;-60
2022/05/20 04:48:23;;;;;;;9.30;7.30;;;14.90;99.90;;;;;;5106554;27;20470;-60
2022/05/20 04:50:49;;;;;;;9.83;6.50;;;14.90;99.90;;;;;;5103173;28;20816;-60
2022/05/20 04:54:49;;;;;;;7.60;5.93;;;15.00;99.90;;;;;;5106237;28;20201;-60
2022/05/20 04:56:00;;;;;;;9.00;6.60;;;15.00;99.90;;;;;;5106243;27;20169;-60
2022/05/20 04:58:26;;;;;;;9.10;6.80;;;15.00;99.90;;;;;;5107912;28;20470;-54
2022/05/20 05:00:54;;;;;;;14.43;6.93;;;15.10;99.90;;;;;;5103455;27;20545;-59
2022/05/20 05:03:19;;;;;;;10.90;6.30;;;15.10;99.90;;;;;;5098988;27;20292;-59
2022/05/20 05:05:45;;;;;;;10.50;6.80;;;15.10;99.90;;;;;;5101228;28;20520;-63
2022/05/20 05:08:10;;;;;;;14.57;6.83;;;15.10;99.90;;;;;;5103222;27;20192;-58
2022/05/20 05:10:36;;;;;;;8.60;7.10;;;15.10;99.90;;;;;;5099797;27;20184;-59
2022/05/20 05:13:03;;;;;;;12.13;7.10;;;15.10;99.90;;;;;;5102970;28;20664;-60
2022/05/20 05:15:29;;;;;;;9.80;6.80;;;15.10;99.90;;;;;;5107705;28;20264;-59
2022/05/20 05:18:11;;;;;;;8.53;6.70;;;15.10;99.90;;;;;;5102331;28;20438;-59
2022/05/20 05:20:45;;;;;;;11.17;6.97;;;15.10;99.90;;;;;;5085660;28;20474;-59
2022/05/20 05:23:11;;;;;;;9.13;6.80;;;15.20;99.90;;;;;;5106307;28;20446;-60
2022/05/20 05:25:36;;;;;;;8.87;7.03;;;15.20;99.90;;;;;;5100638;28;20505;-59
2022/05/20 05:28:03;;;;;;;11.73;6.53;;;15.30;99.90;;;;;;5111026;28;20173;-60
2022/05/20 05:30:30;;;;;;;9.33;7.67;;;15.30;99.90;;;;;;5105074;27;20173;-59
2022/05/20 05:32:55;;;;;;;14.13;7.03;;;15.40;99.90;;;;;;5106013;28;21172;-59
2022/05/20 05:35:25;;;;;;;9.03;7.07;;;15.40;99.90;;;;;;5106949;28;20422;-59
2022/05/20 05:37:51;;;;;;;10.17;7.40;;;15.40;99.90;;;;;;5108786;27;20169;-60
2022/05/20 05:40:20;;;;;;;12.30;7.30;;;15.50;99.90;;;;;;5093102;28;20529;-60
2022/05/20 05:42:46;;;;;;;9.50;7.67;;;15.50;99.90;;;;;;5068003;28;20451;-62
2022/05/20 05:45:17;;;;;;;9.63;7.63;;;15.60;99.90;;;;;;5105551;28;20419;-61
2022/05/20 05:47:44;;;;;;;16.23;8.30;;;15.70;99.90;;;;;;5088349;28;20215;-60
2022/05/20 05:50:09;;;;;;;12.00;7.20;;;15.80;99.90;;;;;;5104137;28;20459;-64
2022/05/20 05:52:35;;;;;;;11.83;8.13;;;15.90;99.90;;;;;;5105038;28;20453;-61
2022/05/20 05:55:01;;;;;;;9.30;7.40;;;16.00;99.90;;;;;;5106131;28;20616;-60
2022/05/20 05:57:28;;;;;;;13.20;7.70;;;16.10;99.90;;;;;;5104761;28;20185;-61
2022/05/20 05:59:55;;;;;;;8.83;7.47;;;16.20;99.90;;;;;;5104870;28;20809;-60
2022/05/20 06:02:21;;;;;;;10.30;7.60;;;16.20;99.90;;;;;;5092284;28;20466;-60
2022/05/20 06:04:47;;;;;;;11.87;7.40;;;16.40;99.90;;;;;;5094292;28;20430;-60
2022/05/20 06:07:14;;;;;;;12.97;6.70;;;16.40;99.90;;;;;;5106097;28;20435;-60
2022/05/20 06:09:40;;;;;;;10.00;7.87;;;16.50;99.90;;;;;;5104046;28;20466;-60
2022/05/20 06:12:07;;;;;;;8.53;7.37;;;16.60;99.90;;;;;;5083642;28;20959;-60
2022/05/20 06:14:33;;;;;;;14.03;8.20;;;16.70;99.90;;;;;;5106441;28;20415;-59
2022/05/20 06:16:59;;;;;;;15.23;8.30;;;16.80;99.90;;;;;;5104668;28;21044;-60
2022/05/20 06:19:24;;;;;;;8.40;7.20;;;16.90;99.90;;;;;;5109162;28;20513;-59
2022/05/20 06:21:51;;;;;;;11.70;7.10;;;17.00;99.90;;;;;;5105865;28;20676;-63
2022/05/20 06:24:17;;;;;;;11.73;7.60;;;17.00;99.90;;;;;;5105397;28;20200;-59
2022/05/20 06:26:44;;;;;;;14.03;7.50;;;17.10;99.90;;;;;;5103836;28;20427;-60
2022/05/20 06:29:10;;;;;;;10.97;7.97;;;17.20;99.90;;;;;;5089305;28;20463;-60
2022/05/20 06:31:36;;;;;;;12.53;8.33;;;17.20;99.90;;;;;;5105125;28;20463;-54
2022/05/20 06:34:02;;;;;;;15.77;8.97;;;17.40;99.90;;;;;;5103393;28;20628;-55
2022/05/20 06:41:57;;;;;;;15.13;7.90;;;17.70;99.90;;;;;;5100824;28;20529;-57
2022/05/20 06:44:24;;;;;;;30.30;14.87;;;17.70;99.90;;;;;;5104319;27;21080;-56
2022/05/20 06:46:50;;;;;;;27.80;14.83;;;17.80;99.90;;;;;;5104278;28;20172;-57
2022/05/20 06:49:16;;;;;;;21.93;11.43;;;17.90;99.90;;;;;;5098354;28;20459;-55
2022/05/20 06:51:42;;;;;;;22.83;11.80;;;18.00;99.90;;;;;;5104911;28;20971;-56
2022/05/20 06:54:10;;;;;;;16.93;10.50;;;18.10;99.90;;;;;;5106812;28;20439;-56
2022/05/20 06:56:37;;;;;;;15.97;10.27;;;18.20;99.90;;;;;;5099257;28;20588;-55
2022/05/20 06:59:04;;;;;;;16.27;9.17;;;18.30;99.90;;;;;;5105858;28;20442;-55
2022/05/20 07:01:30;;;;;;;18.67;8.47;;;18.40;99.90;;;;;;5097113;28;20435;-55
2022/05/20 07:03:56;;;;;;;17.80;7.80;;;18.50;99.90;;;;;;5107965;28;20603;-56
2022/05/20 07:06:24;;;;;;;14.43;7.67;;;18.70;99.90;;;;;;5103154;28;20177;-56
2022/05/20 07:08:50;;;;;;;17.77;8.37;;;18.80;99.90;;;;;;5107760;28;20477;-55
2022/05/20 07:11:21;;;;;;;10.50;7.37;;;18.90;99.90;;;;;;5107354;28;20482;-55
2022/05/20 07:13:48;;;;;;;10.37;7.00;;;19.00;99.90;;;;;;5103289;28;20454;-56
2022/05/20 07:16:14;;;;;;;10.90;7.40;;;19.20;99.90;;;;;;5101138;28;20432;-55
2022/05/20 07:18:40;;;;;;;11.43;7.20;;;19.30;99.90;;;;;;5088440;28;20415;-55
2022/05/20 07:21:06;;;;;;;8.13;6.60;;;19.40;99.90;;;;;;5089382;28;20486;-55
2022/05/20 07:23:33;;;;;;;13.60;7.87;;;19.50;99.90;;;;;;5103839;28;20831;-55
2022/05/20 07:25:59;;;;;;;11.93;6.87;;;19.60;99.60;;;;;;5107934;28;20409;-55
2022/05/20 07:28:25;;;;;;;11.70;7.17;;;19.80;99.80;;;;;;5107280;28;20463;-56
2022/05/20 07:30:51;;;;;;;16.50;8.77;;;19.90;99.40;;;;;;5110402;28;20475;-56
2022/05/20 07:33:17;;;;;;;16.27;9.17;;;20.10;99.60;;;;;;5100940;28;20200;-55
2022/05/20 07:35:43;;;;;;;15.20;7.93;;;20.30;98.00;;;;;;5092226;28;20438;-56
2022/05/20 07:38:09;;;;;;;16.03;8.40;;;20.40;96.90;;;;;;5112160;28;20181;-56
2022/05/20 07:40:35;;;;;;;6.23;4.33;;;20.60;96.80;;;;;;5108410;28;20431;-59
2022/05/20 07:43:01;;;;;;;7.53;5.83;;;20.80;92.40;;;;;;5108214;28;20446;-59
2022/05/20 07:45:26;;;;;;;11.50;4.13;;;20.80;81.00;;;;;;5104769;28;20435;-60
2022/05/20 07:47:52;;;;;;;7.67;4.00;;;21.00;76.60;;;;;;5102552;28;20457;-59
2022/05/20 07:50:18;;;;;;;8.60;4.30;;;21.20;74.50;;;;;;5101687;28;20273;-59
2022/05/20 07:55:34;;;;;;;12.27;4.17;;;21.60;71.30;;;;;;5104948;28;20479;-59
2022/05/20 07:58:02;;;;;;;5.03;3.83;;;21.80;69.20;;;;;;5111115;28;20498;-59
2022/05/20 08:00:29;;;;;;;7.60;4.10;;;22.00;66.20;;;;;;5111464;28;20438;-58
2022/05/20 08:02:57;;;;;;;4.07;3.40;;;22.10;64.80;;;;;;5101748;28;20442;-59
2022/05/20 08:05:24;;;;;;;6.10;4.50;;;22.30;65.50;;;;;;5103395;27;20528;-56
2022/05/20 08:07:50;;;;;;;8.97;4.30;;;22.40;63.40;;;;;;5099851;28;20457;-58
2022/05/20 08:10:17;;;;;;;6.70;4.33;;;22.50;62.00;;;;;;5106880;28;20474;-58
2022/05/20 08:12:43;;;;;;;4.83;4.17;;;22.60;62.40;;;;;;5111207;27;20431;-58
2022/05/20 08:15:10;;;;;;;6.80;3.90;;;22.80;60.60;;;;;;5109427;28;20430;-59
2022/05/20 08:17:39;;;;;;;7.60;3.77;;;22.80;60.60;;;;;;5111149;28;20418;-58
2022/05/20 08:20:09;;;;;;;5.70;3.90;;;22.90;60.10;;;;;;5095393;28;20495;-59
2022/05/20 08:22:35;;;;;;;6.00;4.00;;;23.00;60.50;;;;;;5097779;28;20459;-59
2022/05/20 08:25:01;;;;;;;9.47;4.57;;;23.10;59.70;;;;;;5085492;28;20545;-58
2022/05/20 08:27:30;;;;;;;5.40;4.13;;;23.20;59.30;;;;;;5101953;28;20435;-59
2022/05/20 08:29:56;;;;;;;8.70;4.73;;;23.30;59.10;;;;;;5100192;28;20458;-60
2022/05/20 08:32:22;;;;;;;4.30;3.90;;;23.30;58.20;;;;;;5102785;28;20978;-59
2022/05/20 08:34:49;;;;;;;6.50;4.23;;;23.40;58.50;;;;;;5103731;28;20506;-59
2022/05/20 08:37:16;;;;;;;5.27;3.97;;;23.50;57.90;;;;;;5100756;28;20894;-60
2022/05/20 08:39:43;;;;;;;7.30;4.40;;;23.50;58.50;;;;;;5108043;28;20526;-60
2022/05/20 08:42:22;;;;;;;6.70;4.40;;;23.60;58.20;;;;;;5102689;27;20495;-59
2022/05/20 08:44:48;;;;;;;4.43;3.60;;;23.70;58.00;;;;;;5102361;28;20811;-60
2022/05/20 08:47:38;;;;;;;6.30;3.80;;;23.80;58.00;;;;;;5101753;28;20441;-59
2022/05/20 08:50:12;;;;;;;7.30;4.00;;;23.90;58.40;;;;;;5100535;28;20950;-59
2022/05/20 08:52:38;;;;;;;5.43;4.13;;;24.00;57.50;;;;;;5100655;27;20497;-59
2022/05/20 08:55:04;;;;;;;8.40;4.70;;;24.10;57.80;;;;;;5101196;27;20431;-59
2022/05/20 08:57:33;;;;;;;5.07;4.20;;;24.10;58.80;;;;;;5097973;28;20431;-59
2022/05/20 09:00:00;;;;;;;8.10;4.33;;;24.30;58.00;;;;;;5087589;27;20481;-59
2022/05/20 09:02:26;;;;;;;5.13;3.80;;;24.40;57.30;;;;;;5110254;27;20796;-59
2022/05/20 09:04:51;;;;;;;6.33;4.03;;;24.50;57.80;;;;;;5103904;28;20429;-59
2022/05/20 09:07:19;;;;;;;5.17;4.30;;;24.50;57.00;;;;;;5104809;28;20181;-58
2022/05/20 09:09:58;;;;;;;5.67;4.10;;;24.50;57.30;;;;;;5107242;28;20232;-60
2022/05/20 09:12:32;;;;;;;5.60;4.70;;;24.60;58.30;;;;;;5103453;28;20461;-60
2022/05/20 09:18:08;;;;;;;5.67;4.63;;;24.80;57.50;;;;;;5102328;28;20438;-54
2022/05/20 09:20:46;;;;;;;5.40;4.00;;;24.90;56.90;;;;;;5101249;27;20441;-55
2022/05/20 09:23:15;;;;;;;6.60;4.37;;;25.10;57.20;;;;;;5105092;28;20446;-59
2022/05/20 09:26:08;;;;;;;7.23;4.50;;;25.10;55.00;;;;;;5104876;28;20510;-59
2022/05/20 09:29:08;;;;;;;6.23;4.33;;;25.20;53.60;;;;;;5103483;27;20570;-59
2022/05/20 09:31:48;;;;;;;8.13;3.80;;;25.20;53.70;;;;;;5085095;28;20465;-59
2022/05/20 09:34:26;;;;;;;8.53;4.27;;;25.30;53.30;;;;;;5103399;28;20914;-59
2022/05/20 09:36:55;;;;;;;7.63;3.90;;;25.40;53.30;;;;;;5107651;27;20494;-59
2022/05/20 09:39:29;;;;;;;11.23;4.33;;;25.50;52.70;;;;;;5103504;28;20454;-60
2022/05/20 09:41:57;;;;;;;6.37;4.30;;;25.60;51.40;;;;;;5105698;28;20426;-60
2022/05/20 09:44:31;;;;;;;8.30;4.10;;;25.60;51.20;;;;;;5107676;28;20803;-60
2022/05/20 09:47:24;;;;;;;7.10;4.10;;;25.70;51.50;;;;;;5089618;28;20415;-60
2022/05/20 09:50:05;;;;;;;5.93;3.90;;;25.80;51.40;;;;;;5104849;28;20618;-59
2022/05/20 09:52:52;;;;;;;5.23;3.67;;;25.90;51.10;;;;;;5108892;28;20458;-60
2022/05/20 09:55:29;;;;;;;6.67;3.80;;;26.00;51.10;;;;;;5100937;28;20426;-60
2022/05/20 09:57:57;;;;;;;7.30;4.70;;;26.10;50.40;;;;;;5103145;28;20434;-60
2022/05/20 10:00:26;;;;;;;9.00;4.40;;;26.10;49.90;;;;;;5107819;28;20491;-59
2022/05/20 10:03:17;;;;;;;8.40;3.70;;;26.20;49.60;;;;;;5107004;28;20978;-60
2022/05/20 10:05:42;;;;;;;13.30;4.67;;;26.30;49.80;;;;;;5094277;28;20470;-59
2022/05/20 10:08:17;;;;;;;16.27;3.87;;;26.40;50.20;;;;;;5100757;28;20980;-60
2022/05/20 10:10:43;;;;;;;5.80;4.30;;;26.50;49.50;;;;;;5104188;27;20247;-61
2022/05/20 10:13:35;;;;;;;5.50;4.53;;;26.70;49.90;;;;;;5108257;28;20533;-60
2022/05/20 10:16:09;;;;;;;4.40;4.00;;;26.90;48.30;;;;;;5106064;28;20181;-59
2022/05/20 10:18:42;;;;;;;4.73;3.47;;;26.90;47.40;;;;;;5107455;28;20918;-60
2022/05/20 10:21:16;;;;;;;4.77;3.83;;;27.00;46.40;;;;;;5101597;28;20453;-60
2022/05/20 10:24:15;;;;;;;6.60;3.43;;;27.00;47.00;;;;;;5106544;28;20438;-60
2022/05/20 10:26:55;;;;;;;8.57;3.80;;;27.00;45.10;;;;;;5106402;28;20456;-60
2022/05/20 10:32:39;;;;;;;6.60;3.90;;;27.20;45.40;;;;;;5106075;28;20732;-60
2022/05/20 10:35:13;;;;;;;4.63;3.77;;;27.30;45.50;;;;;;5110550;27;20436;-59
2022/05/20 10:38:09;;;;;;;11.90;3.70;;;27.40;44.60;;;;;;5105709;28;20551;-59
2022/05/20 10:40:54;;;;;;;7.90;3.83;;;27.50;45.30;;;;;;5104539;28;20238;-60
2022/05/20 10:50:11;;;;;;;10.77;3.63;;;28.10;43.60;;;;;;5079707;28;20257;-59
2022/05/20 10:53:19;;;;;;;6.10;3.73;;;28.30;44.70;;;;;;5103016;28;20236;-59
2022/05/20 10:56:03;;;;;;;8.80;4.10;;;28.40;44.90;;;;;;5088589;28;20497;-59
2022/05/20 10:58:35;;;;;;;9.17;3.50;;;28.50;43.30;;;;;;5100581;28;20661;-57
2022/05/20 11:01:14;;;;;;;6.60;4.00;;;28.50;42.80;;;;;;5098378;28;20181;-57
2022/05/20 11:04:08;;;;;;;8.97;3.83;;;28.40;42.50;;;;;;5102988;28;20190;-57
2022/05/20 11:07:01;;;;;;;6.37;4.20;;;28.40;43.20;;;;;;5097779;28;20209;-56
2022/05/20 11:09:45;;;;;;;4.93;4.00;;;28.50;43.80;;;;;;5103790;27;20203;-57
2022/05/20 11:12:33;;;;;;;5.53;3.63;;;28.60;43.20;;;;;;5107149;28;20848;-57
2022/05/20 11:15:06;;;;;;;12.30;4.07;;;28.70;42.50;;;;;;5099644;28;20264;-57
2022/05/20 11:17:41;;;;;;;5.55;3.70;;;28.90;42.70;;;;;;5102322;28;20164;-57
2022/05/20 11:20:43;;;;;;;9.85;4.15;;;29.00;43.20;;;;;;5105894;28;20169;-59
2022/05/20 11:23:27;;;;;;;14.95;4.45;;;29.20;43.60;;;;;;5085294;28;20196;-58
2022/05/20 11:26:08;;;;;;;5.82;3.80;;;29.30;42.50;;;;;;5102776;28;20180;-58
2022/05/20 11:28:37;;;;;;;5.40;3.83;;;29.40;42.10;;;;;;5103476;28;20224;-59
2022/05/20 11:31:44;;;;;;;5.32;4.10;;;29.50;43.10;;;;;;5106628;28;20177;-56
2022/05/20 11:34:28;;;;;;;7.13;3.80;;;29.60;43.00;;;;;;5101195;27;20184;-60
2022/05/20 11:37:06;;;;;;;9.02;4.20;;;29.80;41.30;;;;;;5097051;27;20715;-59
2022/05/20 11:40:08;;;;;;;7.72;4.38;;;29.80;41.50;;;;;;5083543;28;20188;-60
2022/05/20 11:42:46;;;;;;;7.20;3.83;;;29.90;41.40;;;;;;5090478;27;20237;-57
2022/05/20 11:45:30;;;;;;;6.38;5.22;;;29.90;41.70;;;;;;5106699;28;20180;-58
2022/05/20 11:48:10;;;;;;;4.97;4.07;;;30.00;40.70;;;;;;5100800;28;20747;-59
2022/05/20 11:50:41;;;;;;;4.78;3.72;;;29.90;42.00;;;;;;5101313;28;20627;-59
2022/05/20 11:53:19;;;;;;;15.65;3.90;;;30.00;42.80;;;;;;5102446;28;20280;-57
2022/05/20 11:55:53;;;;;;;5.63;4.57;;;30.00;41.60;;;;;;5103761;28;20544;-57
2022/05/20 11:58:39;;;;;;;5.68;3.72;;;30.10;42.40;;;;;;5102746;28;20848;-57
2022/05/20 12:01:07;;;;;;;4.97;4.03;;;30.30;43.60;;;;;;5101586;28;20179;-58
2022/05/20 12:04:07;;;;;;;7.90;4.20;;;30.40;42.50;;;;;;5105208;28;21022;-58
2022/05/20 12:06:23;;;;;;;8.23;4.05;;;30.50;42.10;;;;;;5103756;28;20182;-58
2022/05/20 12:08:54;;;;;;;9.88;4.10;;;30.70;42.60;;;;;;5105930;28;20209;-59
2022/05/20 12:11:38;;;;;;;9.05;4.10;;;30.80;41.80;;;;;;5103753;28;20187;-60
2022/05/20 12:14:19;;;;;;;6.43;3.72;;;30.90;41.50;;;;;;5100376;28;20217;-58
2022/05/20 12:17:04;;;;;;;5.93;4.05;;;30.90;41.30;;;;;;5104409;28;20231;-58
2022/05/20 12:25:39;;;;;;;9.05;4.00;;;30.80;39.20;;;;;;5101302;27;20192;-57
2022/05/20 12:28:20;;;;;;;7.32;3.95;;;30.90;38.00;;;;;;5108481;28;20177;-57
2022/05/20 12:31:11;;;;;;;6.95;3.60;;;31.00;37.00;;;;;;5106290;28;20239;-58
2022/05/20 12:34:00;;;;;;;5.78;3.33;;;30.90;36.20;;;;;;5100232;28;20741;-60
2022/05/20 12:36:28;;;;;;;7.00;3.53;;;30.80;37.20;;;;;;5103496;28;20256;-60
2022/05/20 12:39:06;;;;;;;5.80;3.47;;;30.90;38.60;;;;;;5103913;28;20241;-59
2022/05/20 12:41:33;;;;;;;9.77;3.28;;;31.10;40.00;;;;;;5100512;28;20177;-60
2022/05/20 12:44:20;;;;;;;8.13;3.13;;;31.20;38.70;;;;;;5101686;28;20714;-59
2022/05/20 12:47:05;;;;;;;8.60;3.30;;;31.40;37.70;;;;;;5085515;28;20295;-59
2022/05/20 12:49:55;;;;;;;9.93;4.03;;;31.60;38.00;;;;;;5104422;28;20243;-58
2022/05/20 12:52:27;;;;;;;11.93;2.92;;;31.70;33.50;;;;;;5103977;28;20255;-60
2022/05/20 12:54:59;;;;;;;6.22;3.05;;;31.70;33.80;;;;;;5096672;28;20250;-61
2022/05/20 12:57:31;;;;;;;6.95;2.67;;;31.70;33.60;;;;;;5104263;28;20170;-62
2022/05/20 13:00:02;;;;;;;7.13;2.92;;;31.70;33.70;;;;;;5103342;27;20212;-61
2022/05/20 13:02:33;;;;;;;7.60;3.28;;;31.80;33.00;;;;;;5103331;28;20192;-60
2022/05/20 13:05:20;;;;;;;6.72;3.47;;;31.90;32.50;;;;;;5101242;28;20186;-62
2022/05/20 13:07:47;;;;;;;10.68;3.10;;;31.90;33.00;;;;;;5103735;28;20175;-61
2022/05/20 13:10:25;;;;;;;8.40;3.30;;;32.00;33.10;;;;;;5102163;28;20208;-61
2022/05/20 13:12:53;;;;;;;7.05;3.40;;;32.20;32.70;;;;;;5100897;28;20201;-61
2022/05/20 13:15:19;;;;;;;11.55;3.97;;;32.10;33.50;;;;;;5093563;28;20162;-60
2022/05/20 13:18:01;;;;;;;4.72;3.47;;;32.20;34.60;;;;;;5103156;27;20658;-60
2022/05/20 13:20:29;;;;;;;8.23;3.95;;;32.20;33.20;;;;;;5102130;28;20177;-58
2022/05/20 13:23:02;;;;;;;4.90;3.50;;;32.20;33.20;;;;;;5100361;28;20192;-60
2022/05/20 13:25:29;;;;;;;6.40;3.80;;;32.30;34.20;;;;;;5082212;28;20201;-61
2022/05/20 13:27:54;;;;;;;8.50;3.38;;;32.50;34.90;;;;;;5099079;28;20187;-61
2022/05/20 13:30:23;;;;;;;6.78;3.28;;;32.50;35.00;;;;;;5099049;28;20197;-63
2022/05/20 13:32:49;;;;;;;7.20;4.30;;;32.60;35.10;;;;;;5101375;28;20287;-63
2022/05/20 13:35:15;;;;;;;10.60;4.15;;;32.70;35.50;;;;;;5103031;27;20643;-60
2022/05/20 13:37:49;;;;;;;9.43;4.03;;;32.70;35.50;;;;;;5100984;28;20199;-60
2022/05/20 13:40:37;;;;;;;6.53;3.28;;;32.80;35.50;;;;;;5104761;28;20197;-60
2022/05/20 13:43:03;;;;;;;7.00;3.97;;;32.80;35.70;;;;;;5096143;28;20214;-61
2022/05/20 13:51:09;;;;;;;6.07;3.88;;;32.70;36.00;;;;;;5106826;28;20178;-59
2022/05/20 13:53:38;;;;;;;6.10;3.65;;;32.80;36.00;;;;;;5103124;28;20212;-61